sensor_id;sensor_type;location;lat;lon;timestamp;P1;P2;P0
70243;PMS7003;57634;51.136;17.024;2023-06-26T00:01:12;6;6;4
70243;PMS7003;57634;51.136;17.024;2023-06-26T00:04:18;6;5;4
70243;PMS7003;57634;51.136;17.024;2023-06-26T00:07:20;6;6;4
70243;PMS7003;57634;51.136;17.024;2023-06-26T00:10:21;5;5;4
70243;PMS7003;57634;51.136;17.024;2023-06-26T00:13:23;6;6;4
70243;PMS7003;57634;51.136;17.024;2023-06-26T00:16:52;6;5;4
70243;PMS7003;57634;51.136;17.024;2023-06-26T00:19:53;6;6;5
70243;PMS7003;57634;51.136;17.024;2023-06-26T00:22:54;6;6;4
70243;PMS7003;57634;51.136;17.024;2023-06-26T00:25:59;8;6;5
70243;PMS7003;57634;51.136;17.024;2023-06-26T00:29:02;6;5;4
70243;PMS7003;57634;51.136;17.024;2023-06-26T00:32:03;7;7;6
70243;PMS7003;57634;51.136;17.024;2023-06-26T00:35:05;6;6;5
70243;PMS7003;57634;51.136;17.024;2023-06-26T00:38:06;6;6;5
70243;PMS7003;57634;51.136;17.024;2023-06-26T00:41:07;8;6;5
70243;PMS7003;57634;51.136;17.024;2023-06-26T00:44:13;6;6;3
70243;PMS7003;57634;51.136;17.024;2023-06-26T00:47:14;9;7;5
70243;PMS7003;57634;51.136;17.024;2023-06-26T00:50:18;7;6;5
70243;PMS7003;57634;51.136;17.024;2023-06-26T00:53:46;5;5;4
70243;PMS7003;57634;51.136;17.024;2023-06-26T00:56:48;6;6;5
70243;PMS7003;57634;51.136;17.024;2023-06-26T00:59:50;8;7;5
70243;PMS7003;57634;51.136;17.024;2023-06-26T01:02:52;8;5;4
70243;PMS7003;57634;51.136;17.024;2023-06-26T01:05:54;6;5;4
70243;PMS7003;57634;51.136;17.024;2023-06-26T01:08:59;5;5;4
70243;PMS7003;57634;51.136;17.024;2023-06-26T01:12:01;6;5;5
70243;PMS7003;57634;51.136;17.024;2023-06-26T01:15:03;6;6;4
70243;PMS7003;57634;51.136;17.024;2023-06-26T01:18:05;6;6;4
70243;PMS7003;57634;51.136;17.024;2023-06-26T01:21:07;6;6;4
70243;PMS7003;57634;51.136;17.024;2023-06-26T01:27:52;6;6;5
70243;PMS7003;57634;51.136;17.024;2023-06-26T01:30:55;7;5;4
70243;PMS7003;57634;51.136;17.024;2023-06-26T01:33:58;7;7;5
70243;PMS7003;57634;51.136;17.024;2023-06-26T01:37:00;8;6;4
70243;PMS7003;57634;51.136;17.024;2023-06-26T01:40:02;6;6;5
70243;PMS7003;57634;51.136;17.024;2023-06-26T01:43:06;7;6;4
70243;PMS7003;57634;51.136;17.024;2023-06-26T01:46:27;9;8;6
70243;PMS7003;57634;51.136;17.024;2023-06-26T01:53:12;6;6;5
70243;PMS7003;57634;51.136;17.024;2023-06-26T01:56:18;6;6;4
70243;PMS7003;57634;51.136;17.024;2023-06-26T01:59:23;7;6;5
70243;PMS7003;57634;51.136;17.024;2023-06-26T02:02:28;7;7;5
70243;PMS7003;57634;51.136;17.024;2023-06-26T02:05:30;9;8;5
70243;PMS7003;57634;51.136;17.024;2023-06-26T02:08:33;9;7;5
70243;PMS7003;57634;51.136;17.024;2023-06-26T02:11:35;8;7;5
70243;PMS7003;57634;51.136;17.024;2023-06-26T02:14:36;11;8;5
70243;PMS7003;57634;51.136;17.024;2023-06-26T02:17:37;8;8;5
70243;PMS7003;57634;51.136;17.024;2023-06-26T02:20:39;6;6;4
70243;PMS7003;57634;51.136;17.024;2023-06-26T02:24:08;8;7;5
70243;PMS7003;57634;51.136;17.024;2023-06-26T02:27:10;8;8;5
70243;PMS7003;57634;51.136;17.024;2023-06-26T02:30:11;7;7;5
70243;PMS7003;57634;51.136;17.024;2023-06-26T02:33:13;8;7;5
70243;PMS7003;57634;51.136;17.024;2023-06-26T02:36:14;9;7;5
70243;PMS7003;57634;51.136;17.024;2023-06-26T02:39:15;10;9;5
70243;PMS7003;57634;51.136;17.024;2023-06-26T02:42:16;8;8;5
70243;PMS7003;57634;51.136;17.024;2023-06-26T02:45:18;7;7;5
70243;PMS7003;57634;51.136;17.024;2023-06-26T02:48:20;9;9;6
70243;PMS7003;57634;51.136;17.024;2023-06-26T02:51:21;9;8;6
70243;PMS7003;57634;51.136;17.024;2023-06-26T02:54:23;7;7;5
70243;PMS7003;57634;51.136;17.024;2023-06-26T02:57:24;6;6;5
70243;PMS7003;57634;51.136;17.024;2023-06-26T03:00:26;7;7;5
70243;PMS7003;57634;51.136;17.024;2023-06-26T03:03:30;9;9;5
70243;PMS7003;57634;51.136;17.024;2023-06-26T03:07:07;7;7;4
70243;PMS7003;57634;51.136;17.024;2023-06-26T03:10:08;9;8;5
70243;PMS7003;57634;51.136;17.024;2023-06-26T03:13:10;9;7;5
70243;PMS7003;57634;51.136;17.024;2023-06-26T03:16:11;6;6;5
70243;PMS7003;57634;51.136;17.024;2023-06-26T03:19:12;9;7;5
70243;PMS7003;57634;51.136;17.024;2023-06-26T03:22:14;9;8;6
70243;PMS7003;57634;51.136;17.024;2023-06-26T03:25:15;7;7;4
70243;PMS7003;57634;51.136;17.024;2023-06-26T03:28:16;8;8;5
70243;PMS7003;57634;51.136;17.024;2023-06-26T03:31:18;7;7;6
70243;PMS7003;57634;51.136;17.024;2023-06-26T03:34:19;8;8;5
70243;PMS7003;57634;51.136;17.024;2023-06-26T03:37:21;8;8;5
70243;PMS7003;57634;51.136;17.024;2023-06-26T03:40:22;9;9;6
70243;PMS7003;57634;51.136;17.024;2023-06-26T03:43:24;8;7;5
70243;PMS7003;57634;51.136;17.024;2023-06-26T03:46:26;9;9;6
70243;PMS7003;57634;51.136;17.024;2023-06-26T03:49:55;7;7;5
70243;PMS7003;57634;51.136;17.024;2023-06-26T03:52:57;8;8;6
70243;PMS7003;57634;51.136;17.024;2023-06-26T03:56:00;10;9;7
70243;PMS7003;57634;51.136;17.024;2023-06-26T03:59:01;10;9;6
70243;PMS7003;57634;51.136;17.024;2023-06-26T04:02:03;9;7;6
70243;PMS7003;57634;51.136;17.024;2023-06-26T04:05:05;8;8;6
70243;PMS7003;57634;51.136;17.024;2023-06-26T04:08:07;8;7;6
70243;PMS7003;57634;51.136;17.024;2023-06-26T04:11:09;9;9;6
70243;PMS7003;57634;51.136;17.024;2023-06-26T04:14:11;10;9;7
70243;PMS7003;57634;51.136;17.024;2023-06-26T04:17:13;9;9;5
70243;PMS7003;57634;51.136;17.024;2023-06-26T04:20:14;9;9;6
70243;PMS7003;57634;51.136;17.024;2023-06-26T04:23:16;9;7;5
70243;PMS7003;57634;51.136;17.024;2023-06-26T04:26:17;6;6;5
70243;PMS7003;57634;51.136;17.024;2023-06-26T04:29:45;8;8;5
70243;PMS7003;57634;51.136;17.024;2023-06-26T04:32:47;8;7;5
70243;PMS7003;57634;51.136;17.024;2023-06-26T04:35:48;6;6;5
70243;PMS7003;57634;51.136;17.024;2023-06-26T04:38:50;9;7;5
70243;PMS7003;57634;51.136;17.024;2023-06-26T04:41:51;6;6;4
70243;PMS7003;57634;51.136;17.024;2023-06-26T04:44:53;9;9;5
70243;PMS7003;57634;51.136;17.024;2023-06-26T04:47:55;9;8;5
70243;PMS7003;57634;51.136;17.024;2023-06-26T04:50:58;6;5;4
70243;PMS7003;57634;51.136;17.024;2023-06-26T04:54:00;5;4;3
70243;PMS7003;57634;51.136;17.024;2023-06-26T04:57:01;6;6;4
70243;PMS7003;57634;51.136;17.024;2023-06-26T05:00:04;4;4;3
70243;PMS7003;57634;51.136;17.024;2023-06-26T05:03:13;5;5;4
70243;PMS7003;57634;51.136;17.024;2023-06-26T05:06:42;6;5;4
70243;PMS7003;57634;51.136;17.024;2023-06-26T05:09:44;5;5;4
70243;PMS7003;57634;51.136;17.024;2023-06-26T05:12:45;4;2;2
70243;PMS7003;57634;51.136;17.024;2023-06-26T05:15:46;5;4;2
70243;PMS7003;57634;51.136;17.024;2023-06-26T05:18:48;3;3;2
70243;PMS7003;57634;51.136;17.024;2023-06-26T05:21:49;4;4;3
70243;PMS7003;57634;51.136;17.024;2023-06-26T05:24:51;3;3;2
70243;PMS7003;57634;51.136;17.024;2023-06-26T05:27:57;3;2;2
70243;PMS7003;57634;51.136;17.024;2023-06-26T05:30:59;5;5;3
70243;PMS7003;57634;51.136;17.024;2023-06-26T05:34:00;3;3;3
70243;PMS7003;57634;51.136;17.024;2023-06-26T05:37:04;3;3;2
70243;PMS7003;57634;51.136;17.024;2023-06-26T05:40:08;4;4;3
70243;PMS7003;57634;51.136;17.024;2023-06-26T05:43:38;5;4;3
70243;PMS7003;57634;51.136;17.024;2023-06-26T05:46:40;5;5;3
70243;PMS7003;57634;51.136;17.024;2023-06-26T05:49:41;2;2;2
70243;PMS7003;57634;51.136;17.024;2023-06-26T05:52:43;3;3;2
70243;PMS7003;57634;51.136;17.024;2023-06-26T05:55:45;2;2;2
70243;PMS7003;57634;51.136;17.024;2023-06-26T05:58:47;4;3;2
70243;PMS7003;57634;51.136;17.024;2023-06-26T06:01:50;4;4;2
70243;PMS7003;57634;51.136;17.024;2023-06-26T06:04:52;2;2;2
70243;PMS7003;57634;51.136;17.024;2023-06-26T06:07:54;2;2;2
70243;PMS7003;57634;51.136;17.024;2023-06-26T06:10:55;2;2;1
70243;PMS7003;57634;51.136;17.024;2023-06-26T06:13:56;2;2;1
70243;PMS7003;57634;51.136;17.024;2023-06-26T06:17:00;3;2;1
70243;PMS7003;57634;51.136;17.024;2023-06-26T06:20:02;2;2;1
70243;PMS7003;57634;51.136;17.024;2023-06-26T06:23:31;1;1;0
70243;PMS7003;57634;51.136;17.024;2023-06-26T06:26:32;1;1;1
70243;PMS7003;57634;51.136;17.024;2023-06-26T06:29:34;1;1;1
70243;PMS7003;57634;51.136;17.024;2023-06-26T06:32:35;1;1;1
70243;PMS7003;57634;51.136;17.024;2023-06-26T06:35:36;1;1;1
70243;PMS7003;57634;51.136;17.024;2023-06-26T06:38:38;1;1;1
70243;PMS7003;57634;51.136;17.024;2023-06-26T06:41:44;1;1;1
70243;PMS7003;57634;51.136;17.024;2023-06-26T06:44:46;2;2;1
70243;PMS7003;57634;51.136;17.024;2023-06-26T06:47:47;2;2;1
70243;PMS7003;57634;51.136;17.024;2023-06-26T06:50:49;1;1;1
70243;PMS7003;57634;51.136;17.024;2023-06-26T06:53:50;3;2;1
70243;PMS7003;57634;51.136;17.024;2023-06-26T06:56:54;2;2;1
70243;PMS7003;57634;51.136;17.024;2023-06-26T07:00:24;2;2;2
70243;PMS7003;57634;51.136;17.024;2023-06-26T07:03:26;2;1;0
70243;PMS7003;57634;51.136;17.024;2023-06-26T07:06:28;3;3;2
70243;PMS7003;57634;51.136;17.024;2023-06-26T07:09:29;2;2;0
70243;PMS7003;57634;51.136;17.024;2023-06-26T07:12:30;1;1;0
70243;PMS7003;57634;51.136;17.024;2023-06-26T07:15:32;2;2;1
70243;PMS7003;57634;51.136;17.024;2023-06-26T07:18:33;1;1;1
70243;PMS7003;57634;51.136;17.024;2023-06-26T07:21:34;2;2;1
70243;PMS7003;57634;51.136;17.024;2023-06-26T07:24:36;2;2;2
70243;PMS7003;57634;51.136;17.024;2023-06-26T07:27:37;1;1;1
70243;PMS7003;57634;51.136;17.024;2023-06-26T07:30:39;1;1;1
70243;PMS7003;57634;51.136;17.024;2023-06-26T07:33:41;2;2;1
70243;PMS7003;57634;51.136;17.024;2023-06-26T07:36:42;2;2;1
70243;PMS7003;57634;51.136;17.024;2023-06-26T07:39:43;1;1;1
70243;PMS7003;57634;51.136;17.024;2023-06-26T07:43:11;2;2;1
70243;PMS7003;57634;51.136;17.024;2023-06-26T07:46:12;2;2;1
70243;PMS7003;57634;51.136;17.024;2023-06-26T07:49:15;2;2;1
70243;PMS7003;57634;51.136;17.024;2023-06-26T07:52:18;0;0;0
70243;PMS7003;57634;51.136;17.024;2023-06-26T07:55:20;2;1;0
70243;PMS7003;57634;51.136;17.024;2023-06-26T07:58:22;1;1;1
70243;PMS7003;57634;51.136;17.024;2023-06-26T08:01:24;2;2;1
70243;PMS7003;57634;51.136;17.024;2023-06-26T08:04:26;1;1;0
70243;PMS7003;57634;51.136;17.024;2023-06-26T08:07:30;1;1;1
70243;PMS7003;57634;51.136;17.024;2023-06-26T08:10:32;0;0;0
70243;PMS7003;57634;51.136;17.024;2023-06-26T08:13:33;2;2;1
70243;PMS7003;57634;51.136;17.024;2023-06-26T08:16:34;1;1;0
70243;PMS7003;57634;51.136;17.024;2023-06-26T08:19:35;1;1;0
70243;PMS7003;57634;51.136;17.024;2023-06-26T08:23:03;1;1;0
70243;PMS7003;57634;51.136;17.024;2023-06-26T08:26:05;1;1;0
70243;PMS7003;57634;51.136;17.024;2023-06-26T08:29:07;1;1;1
70243;PMS7003;57634;51.136;17.024;2023-06-26T08:32:09;1;1;0
70243;PMS7003;57634;51.136;17.024;2023-06-26T08:35:13;1;1;0
70243;PMS7003;57634;51.136;17.024;2023-06-26T08:38:15;1;1;0
70243;PMS7003;57634;51.136;17.024;2023-06-26T08:41:17;1;0;0
70243;PMS7003;57634;51.136;17.024;2023-06-26T08:44:18;0;0;0
70243;PMS7003;57634;51.136;17.024;2023-06-26T08:47:25;1;1;1
70243;PMS7003;57634;51.136;17.024;2023-06-26T08:50:27;0;0;0
70243;PMS7003;57634;51.136;17.024;2023-06-26T08:54:02;0;0;0
70243;PMS7003;57634;51.136;17.024;2023-06-26T08:57:10;1;1;0
70243;PMS7003;57634;51.136;17.024;2023-06-26T09:00:13;1;1;0
70243;PMS7003;57634;51.136;17.024;2023-06-26T09:03:16;1;1;0
70243;PMS7003;57634;51.136;17.024;2023-06-26T09:06:18;0;0;0
70243;PMS7003;57634;51.136;17.024;2023-06-26T09:09:19;1;1;1
70243;PMS7003;57634;51.136;17.024;2023-06-26T09:12:21;1;0;0
70243;PMS7003;57634;51.136;17.024;2023-06-26T09:15:23;1;1;0
70243;PMS7003;57634;51.136;17.024;2023-06-26T09:18:25;1;1;1
70243;PMS7003;57634;51.136;17.024;2023-06-26T09:21:27;1;1;0
70243;PMS7003;57634;51.136;17.024;2023-06-26T09:24:28;0;0;0
70243;PMS7003;57634;51.136;17.024;2023-06-26T09:27:57;1;1;0
70243;PMS7003;57634;51.136;17.024;2023-06-26T09:31:00;1;1;0
70243;PMS7003;57634;51.136;17.024;2023-06-26T09:34:06;1;1;0
70243;PMS7003;57634;51.136;17.024;2023-06-26T09:37:07;1;1;0
70243;PMS7003;57634;51.136;17.024;2023-06-26T09:40:09;1;1;0
70243;PMS7003;57634;51.136;17.024;2023-06-26T09:43:13;0;0;0
70243;PMS7003;57634;51.136;17.024;2023-06-26T09:46:23;0;0;0
70243;PMS7003;57634;51.136;17.024;2023-06-26T09:49:28;0;0;0
70243;PMS7003;57634;51.136;17.024;2023-06-26T09:52:30;0;0;0
70243;PMS7003;57634;51.136;17.024;2023-06-26T09:56:04;0;0;0
70243;PMS7003;57634;51.136;17.024;2023-06-26T09:59:12;1;1;0
70243;PMS7003;57634;51.136;17.024;2023-06-26T10:02:15;0;0;0
70243;PMS7003;57634;51.136;17.024;2023-06-26T10:05:16;1;1;0
70243;PMS7003;57634;51.136;17.024;2023-06-26T10:08:18;0;0;0
70243;PMS7003;57634;51.136;17.024;2023-06-26T10:11:21;1;1;1
70243;PMS7003;57634;51.136;17.024;2023-06-26T10:14:26;2;2;1
70243;PMS7003;57634;51.136;17.024;2023-06-26T10:17:30;1;1;0
70243;PMS7003;57634;51.136;17.024;2023-06-26T10:20:35;1;1;1
70243;PMS7003;57634;51.136;17.024;2023-06-26T10:24:02;1;1;1
70243;PMS7003;57634;51.136;17.024;2023-06-26T10:30:19;1;1;1
70243;PMS7003;57634;51.136;17.024;2023-06-26T10:33:24;2;2;1
70243;PMS7003;57634;51.136;17.024;2023-06-26T10:36:30;3;3;2
70243;PMS7003;57634;51.136;17.024;2023-06-26T10:39:45;1;1;1
70243;PMS7003;57634;51.136;17.024;2023-06-26T10:43:13;1;1;1
70243;PMS7003;57634;51.136;17.024;2023-06-26T10:46:21;1;1;0
70243;PMS7003;57634;51.136;17.024;2023-06-26T10:49:30;1;1;1
70243;PMS7003;57634;51.136;17.024;2023-06-26T10:52:36;1;1;1
70243;PMS7003;57634;51.136;17.024;2023-06-26T10:55:43;1;1;0
70243;PMS7003;57634;51.136;17.024;2023-06-26T10:58:54;3;2;1
70243;PMS7003;57634;51.136;17.024;2023-06-26T11:02:41;1;1;1
70243;PMS7003;57634;51.136;17.024;2023-06-26T11:05:43;2;2;2
70243;PMS7003;57634;51.136;17.024;2023-06-26T11:09:00;2;2;1
70243;PMS7003;57634;51.136;17.024;2023-06-26T11:12:04;1;1;1
70243;PMS7003;57634;51.136;17.024;2023-06-26T11:18:14;2;2;1
70243;PMS7003;57634;51.136;17.024;2023-06-26T11:21:41;1;1;1
70243;PMS7003;57634;51.136;17.024;2023-06-26T11:24:43;2;1;1
70243;PMS7003;57634;51.136;17.024;2023-06-26T11:27:45;1;1;1
70243;PMS7003;57634;51.136;17.024;2023-06-26T11:30:46;2;1;1
70243;PMS7003;57634;51.136;17.024;2023-06-26T11:33:47;2;2;1
70243;PMS7003;57634;51.136;17.024;2023-06-26T11:36:49;2;2;0
70243;PMS7003;57634;51.136;17.024;2023-06-26T11:39:51;1;1;1
70243;PMS7003;57634;51.136;17.024;2023-06-26T11:42:55;2;2;1
70243;PMS7003;57634;51.136;17.024;2023-06-26T11:45:57;2;1;0
70243;PMS7003;57634;51.136;17.024;2023-06-26T11:48:59;3;3;2
70243;PMS7003;57634;51.136;17.024;2023-06-26T11:52:02;2;2;1
70243;PMS7003;57634;51.136;17.024;2023-06-26T11:55:04;3;2;1
70243;PMS7003;57634;51.136;17.024;2023-06-26T11:58:34;3;2;2
70243;PMS7003;57634;51.136;17.024;2023-06-26T12:01:39;1;1;1
70243;PMS7003;57634;51.136;17.024;2023-06-26T12:04:43;2;1;1
70243;PMS7003;57634;51.136;17.024;2023-06-26T12:07:46;2;2;1
70243;PMS7003;57634;51.136;17.024;2023-06-26T12:10:50;2;2;1
70243;PMS7003;57634;51.136;17.024;2023-06-26T12:13:51;2;2;1
70243;PMS7003;57634;51.136;17.024;2023-06-26T12:16:53;2;2;0
70243;PMS7003;57634;51.136;17.024;2023-06-26T12:19:55;3;3;1
70243;PMS7003;57634;51.136;17.024;2023-06-26T12:22:57;3;3;2
70243;PMS7003;57634;51.136;17.024;2023-06-26T12:25:58;2;2;2
70243;PMS7003;57634;51.136;17.024;2023-06-26T12:32:36;1;1;0
70243;PMS7003;57634;51.136;17.024;2023-06-26T12:35:37;2;2;1
70243;PMS7003;57634;51.136;17.024;2023-06-26T12:38:39;2;2;1
70243;PMS7003;57634;51.136;17.024;2023-06-26T12:44:50;1;1;0
70243;PMS7003;57634;51.136;17.024;2023-06-26T12:47:53;2;1;1
70243;PMS7003;57634;51.136;17.024;2023-06-26T12:50:59;1;1;0
70243;PMS7003;57634;51.136;17.024;2023-06-26T12:54:05;1;1;1
70243;PMS7003;57634;51.136;17.024;2023-06-26T12:57:07;1;1;1
70243;PMS7003;57634;51.136;17.024;2023-06-26T13:00:36;2;1;0
70243;PMS7003;57634;51.136;17.024;2023-06-26T13:03:37;2;2;1
70243;PMS7003;57634;51.136;17.024;2023-06-26T13:06:39;2;2;1
70243;PMS7003;57634;51.136;17.024;2023-06-26T13:09:41;2;2;1
70243;PMS7003;57634;51.136;17.024;2023-06-26T13:14:13;2;2;1
70243;PMS7003;57634;51.136;17.024;2023-06-26T13:17:14;2;2;2
70243;PMS7003;57634;51.136;17.024;2023-06-26T13:20:16;2;1;1
70243;PMS7003;57634;51.136;17.024;2023-06-26T13:23:17;2;2;1
70243;PMS7003;57634;51.136;17.024;2023-06-26T13:26:20;2;1;1
70243;PMS7003;57634;51.136;17.024;2023-06-26T13:29:25;2;2;1
70243;PMS7003;57634;51.136;17.024;2023-06-26T13:32:29;2;2;1
70243;PMS7003;57634;51.136;17.024;2023-06-26T13:35:30;2;2;1
70243;PMS7003;57634;51.136;17.024;2023-06-26T13:38:32;3;3;3
70243;PMS7003;57634;51.136;17.024;2023-06-26T13:41:34;2;2;1
70243;PMS7003;57634;51.136;17.024;2023-06-26T13:44:36;3;3;2
70243;PMS7003;57634;51.136;17.024;2023-06-26T13:48:07;2;2;1
70243;PMS7003;57634;51.136;17.024;2023-06-26T13:51:08;2;2;1
70243;PMS7003;57634;51.136;17.024;2023-06-26T13:54:10;3;3;3
70243;PMS7003;57634;51.136;17.024;2023-06-26T13:57:11;2;2;1
70243;PMS7003;57634;51.136;17.024;2023-06-26T14:00:13;3;3;2
70243;PMS7003;57634;51.136;17.024;2023-06-26T14:03:20;3;3;2
70243;PMS7003;57634;51.136;17.024;2023-06-26T14:06:23;3;2;2
70243;PMS7003;57634;51.136;17.024;2023-06-26T14:09:24;2;2;2
70243;PMS7003;57634;51.136;17.024;2023-06-26T14:12:26;2;2;2
70243;PMS7003;57634;51.136;17.024;2023-06-26T14:15:27;3;2;2
70243;PMS7003;57634;51.136;17.024;2023-06-26T14:18:28;3;2;2
70243;PMS7003;57634;51.136;17.024;2023-06-26T14:21:30;2;2;1
70243;PMS7003;57634;51.136;17.024;2023-06-26T14:24:59;3;3;2
70243;PMS7003;57634;51.136;17.024;2023-06-26T14:28:00;2;2;2
70243;PMS7003;57634;51.136;17.024;2023-06-26T14:31:02;2;2;1
70243;PMS7003;57634;51.136;17.024;2023-06-26T14:34:04;3;3;2
70243;PMS7003;57634;51.136;17.024;2023-06-26T14:37:05;11;10;7
70243;PMS7003;57634;51.136;17.024;2023-06-26T14:40:07;5;4;3
70243;PMS7003;57634;51.136;17.024;2023-06-26T14:43:09;2;2;2
70243;PMS7003;57634;51.136;17.024;2023-06-26T14:46:10;2;2;2
70243;PMS7003;57634;51.136;17.024;2023-06-26T14:49:13;2;2;2
70243;PMS7003;57634;51.136;17.024;2023-06-26T14:52:15;2;2;2
70243;PMS7003;57634;51.136;17.024;2023-06-26T14:55:16;2;2;1
70243;PMS7003;57634;51.136;17.024;2023-06-26T14:58:18;3;3;2
70243;PMS7003;57634;51.136;17.024;2023-06-26T15:01:19;2;2;2
70243;PMS7003;57634;51.136;17.024;2023-06-26T15:04:21;3;3;2
70243;PMS7003;57634;51.136;17.024;2023-06-26T15:07:48;4;4;2
70243;PMS7003;57634;51.136;17.024;2023-06-26T15:10:50;2;2;2
70243;PMS7003;57634;51.136;17.024;2023-06-26T15:13:51;1;1;1
70243;PMS7003;57634;51.136;17.024;2023-06-26T15:16:53;4;3;2
70243;PMS7003;57634;51.136;17.024;2023-06-26T15:19:55;3;3;3
70243;PMS7003;57634;51.136;17.024;2023-06-26T15:22:56;2;2;2
70243;PMS7003;57634;51.136;17.024;2023-06-26T15:25:59;2;2;2
70243;PMS7003;57634;51.136;17.024;2023-06-26T15:29:00;1;1;1
70243;PMS7003;57634;51.136;17.024;2023-06-26T15:32:02;3;3;3
70243;PMS7003;57634;51.136;17.024;2023-06-26T15:41:14;2;2;1
70243;PMS7003;57634;51.136;17.024;2023-06-26T15:44:42;3;3;2
70243;PMS7003;57634;51.136;17.024;2023-06-26T15:47:43;3;3;3
70243;PMS7003;57634;51.136;17.024;2023-06-26T15:50:51;4;4;3
70243;PMS7003;57634;51.136;17.024;2023-06-26T15:53:52;5;5;4
70243;PMS7003;57634;51.136;17.024;2023-06-26T16:03:52;4;4;3
70243;PMS7003;57634;51.136;17.024;2023-06-26T16:09:59;4;4;4
70243;PMS7003;57634;51.136;17.024;2023-06-26T16:13:02;4;4;3
70243;PMS7003;57634;51.136;17.024;2023-06-26T16:19:23;4;3;3
70243;PMS7003;57634;51.136;17.024;2023-06-26T16:22:25;3;3;2
70243;PMS7003;57634;51.136;17.024;2023-06-26T16:25:26;4;4;3
70243;PMS7003;57634;51.136;17.024;2023-06-26T16:28:27;3;3;3
70243;PMS7003;57634;51.136;17.024;2023-06-26T16:31:55;3;3;2
70243;PMS7003;57634;51.136;17.024;2023-06-26T16:34:56;3;3;2
70243;PMS7003;57634;51.136;17.024;2023-06-26T16:37:58;3;3;2
70243;PMS7003;57634;51.136;17.024;2023-06-26T16:40:59;5;5;3
70243;PMS7003;57634;51.136;17.024;2023-06-26T16:44:01;4;3;3
70243;PMS7003;57634;51.136;17.024;2023-06-26T16:50:18;4;4;3
70243;PMS7003;57634;51.136;17.024;2023-06-26T16:53:23;4;4;4
70243;PMS7003;57634;51.136;17.024;2023-06-26T16:56:24;6;5;3
70243;PMS7003;57634;51.136;17.024;2023-06-26T16:59:26;3;3;3
70243;PMS7003;57634;51.136;17.024;2023-06-26T17:02:55;4;4;4
70243;PMS7003;57634;51.136;17.024;2023-06-26T17:05:57;5;4;3
70243;PMS7003;57634;51.136;17.024;2023-06-26T17:08:58;5;5;4
70243;PMS7003;57634;51.136;17.024;2023-06-26T17:12:00;4;3;2
70243;PMS7003;57634;51.136;17.024;2023-06-26T17:15:01;5;4;3
70243;PMS7003;57634;51.136;17.024;2023-06-26T17:18:04;5;5;3
70243;PMS7003;57634;51.136;17.024;2023-06-26T17:21:06;4;4;3
70243;PMS7003;57634;51.136;17.024;2023-06-26T17:24:08;4;3;2
70243;PMS7003;57634;51.136;17.024;2023-06-26T17:27:10;4;4;3
70243;PMS7003;57634;51.136;17.024;2023-06-26T17:30:14;4;4;3
70243;PMS7003;57634;51.136;17.024;2023-06-26T17:33:17;4;4;3
70243;PMS7003;57634;51.136;17.024;2023-06-26T17:36:19;4;4;3
70243;PMS7003;57634;51.136;17.024;2023-06-26T17:39:50;3;3;2
70243;PMS7003;57634;51.136;17.024;2023-06-26T17:42:52;6;6;4
70243;PMS7003;57634;51.136;17.024;2023-06-26T17:45:54;5;4;3
70243;PMS7003;57634;51.136;17.024;2023-06-26T17:48:55;3;3;2
70243;PMS7003;57634;51.136;17.024;2023-06-26T17:51:56;4;4;3
70243;PMS7003;57634;51.136;17.024;2023-06-26T17:54:58;4;4;3
70243;PMS7003;57634;51.136;17.024;2023-06-26T17:57:59;6;4;3
70243;PMS7003;57634;51.136;17.024;2023-06-26T18:01:01;4;4;3
70243;PMS7003;57634;51.136;17.024;2023-06-26T18:04:03;4;4;3
70243;PMS7003;57634;51.136;17.024;2023-06-26T18:07:04;4;4;3
70243;PMS7003;57634;51.136;17.024;2023-06-26T18:10:07;4;4;3
70243;PMS7003;57634;51.136;17.024;2023-06-26T18:13:09;3;3;2
70243;PMS7003;57634;51.136;17.024;2023-06-26T18:16:11;5;5;3
70243;PMS7003;57634;51.136;17.024;2023-06-26T18:19:40;5;4;3
70243;PMS7003;57634;51.136;17.024;2023-06-26T18:22:42;4;4;3
70243;PMS7003;57634;51.136;17.024;2023-06-26T18:25:43;4;4;3
70243;PMS7003;57634;51.136;17.024;2023-06-26T18:28:45;3;3;2
70243;PMS7003;57634;51.136;17.024;2023-06-26T18:31:51;4;4;3
70243;PMS7003;57634;51.136;17.024;2023-06-26T18:34:52;4;3;2
70243;PMS7003;57634;51.136;17.024;2023-06-26T18:37:54;4;3;2
70243;PMS7003;57634;51.136;17.024;2023-06-26T18:40:56;6;3;3
70243;PMS7003;57634;51.136;17.024;2023-06-26T18:43:57;6;5;4
70243;PMS7003;57634;51.136;17.024;2023-06-26T18:46:59;5;5;3
70243;PMS7003;57634;51.136;17.024;2023-06-26T18:50:01;5;5;4
70243;PMS7003;57634;51.136;17.024;2023-06-26T18:53:03;4;4;3
70243;PMS7003;57634;51.136;17.024;2023-06-26T18:56:06;4;4;3
70243;PMS7003;57634;51.136;17.024;2023-06-26T18:59:33;4;4;3
70243;PMS7003;57634;51.136;17.024;2023-06-26T19:02:35;7;7;4
70243;PMS7003;57634;51.136;17.024;2023-06-26T19:05:37;4;4;3
70243;PMS7003;57634;51.136;17.024;2023-06-26T19:08:39;5;5;4
70243;PMS7003;57634;51.136;17.024;2023-06-26T19:11:40;5;5;3
70243;PMS7003;57634;51.136;17.024;2023-06-26T19:14:42;3;3;2
70243;PMS7003;57634;51.136;17.024;2023-06-26T19:17:45;4;4;3
70243;PMS7003;57634;51.136;17.024;2023-06-26T19:20:47;4;2;2
70243;PMS7003;57634;51.136;17.024;2023-06-26T19:23:49;4;4;3
70243;PMS7003;57634;51.136;17.024;2023-06-26T19:26:50;4;4;3
70243;PMS7003;57634;51.136;17.024;2023-06-26T19:29:57;4;4;3
70243;PMS7003;57634;51.136;17.024;2023-06-26T19:32:59;5;4;3
70243;PMS7003;57634;51.136;17.024;2023-06-26T19:36:27;5;5;4
70243;PMS7003;57634;51.136;17.024;2023-06-26T19:39:28;5;5;3
70243;PMS7003;57634;51.136;17.024;2023-06-26T19:42:30;5;5;4
70243;PMS7003;57634;51.136;17.024;2023-06-26T19:45:32;5;5;3
70243;PMS7003;57634;51.136;17.024;2023-06-26T19:48:34;6;6;3
70243;PMS7003;57634;51.136;17.024;2023-06-26T19:51:37;6;6;4
70243;PMS7003;57634;51.136;17.024;2023-06-26T19:54:38;5;4;3
70243;PMS7003;57634;51.136;17.024;2023-06-26T19:57:41;5;5;4
70243;PMS7003;57634;51.136;17.024;2023-06-26T20:00:43;4;4;3
70243;PMS7003;57634;51.136;17.024;2023-06-26T20:03:45;4;4;3
70243;PMS7003;57634;51.136;17.024;2023-06-26T20:06:46;4;4;3
70243;PMS7003;57634;51.136;17.024;2023-06-26T20:09:50;4;4;3
70243;PMS7003;57634;51.136;17.024;2023-06-26T20:12:52;4;4;3
70243;PMS7003;57634;51.136;17.024;2023-06-26T20:16:18;4;4;3
70243;PMS7003;57634;51.136;17.024;2023-06-26T20:19:21;4;4;3
70243;PMS7003;57634;51.136;17.024;2023-06-26T20:22:23;3;3;2
70243;PMS7003;57634;51.136;17.024;2023-06-26T20:25:25;2;2;1
70243;PMS7003;57634;51.136;17.024;2023-06-26T20:28:26;2;2;1
70243;PMS7003;57634;51.136;17.024;2023-06-26T20:31:28;2;2;2
70243;PMS7003;57634;51.136;17.024;2023-06-26T20:34:29;2;2;1
70243;PMS7003;57634;51.136;17.024;2023-06-26T20:37:31;1;1;0
70243;PMS7003;57634;51.136;17.024;2023-06-26T20:40:32;1;1;0
70243;PMS7003;57634;51.136;17.024;2023-06-26T20:43:34;2;2;2
70243;PMS7003;57634;51.136;17.024;2023-06-26T20:46:36;9;8;6
70243;PMS7003;57634;51.136;17.024;2023-06-26T20:49:39;7;7;5
70243;PMS7003;57634;51.136;17.024;2023-06-26T20:52:42;2;1;1
70243;PMS7003;57634;51.136;17.024;2023-06-26T20:56:10;1;1;0
70243;PMS7003;57634;51.136;17.024;2023-06-26T20:59:12;1;1;0
70243;PMS7003;57634;51.136;17.024;2023-06-26T21:02:14;1;1;1
70243;PMS7003;57634;51.136;17.024;2023-06-26T21:05:16;2;1;0
70243;PMS7003;57634;51.136;17.024;2023-06-26T21:08:18;1;0;0